Time;durP1;ratioP1;P1;durP2;ratioP2;P2;SDS_P1;SDS_P2;PMS_P1;PMS_P2;Temp;Humidity;BMP_temperature;BMP_pressure;BME280_temperature;BME280_humidity;BME280_pressure;Samples;Min_cycle;Max_cycle;Signal;HPM_P1;HPM_P2
2022/01/15 00:00:51;;;;;;;8.70;2.80;;;1.50;99.90;;;;;;5201016;27;20119;-67
2022/01/15 00:03:19;;;;;;;11.30;2.83;;;1.50;99.90;;;;;;5180967;27;20143;-67
2022/01/15 00:05:46;;;;;;;8.17;3.03;;;1.50;99.90;;;;;;5181183;27;20199;-67
2022/01/15 00:08:16;;;;;;;8.23;3.10;;;1.50;99.90;;;;;;5181311;27;20207;-67
2022/01/15 00:10:47;;;;;;;10.53;3.03;;;1.40;99.90;;;;;;5181157;27;20190;-67
2022/01/15 00:13:27;;;;;;;9.13;3.00;;;1.40;99.90;;;;;;5180990;27;20143;-67
2022/01/15 00:16:11;;;;;;;10.17;3.10;;;1.30;99.90;;;;;;5182305;27;20398;-68
2022/01/15 00:18:48;;;;;;;9.23;2.97;;;1.30;99.90;;;;;;5181221;27;20195;-68
2022/01/15 00:21:16;;;;;;;9.97;3.50;;;1.20;99.90;;;;;;5181305;27;20159;-67
2022/01/15 00:23:43;;;;;;;11.10;3.63;;;1.20;99.90;;;;;;5200907;27;20115;-67
2022/01/15 00:26:11;;;;;;;7.40;3.20;;;1.10;99.90;;;;;;5181696;27;20209;-67
2022/01/15 00:28:38;;;;;;;12.53;3.50;;;1.10;99.90;;;;;;5182106;27;20580;-67
2022/01/15 00:31:08;;;;;;;11.13;3.70;;;1.00;99.90;;;;;;5200133;27;20166;-66
2022/01/15 00:33:39;;;;;;;11.83;3.90;;;1.00;99.90;;;;;;5182928;27;20196;-67
2022/01/15 00:36:07;;;;;;;11.80;3.80;;;0.90;99.90;;;;;;5200574;27;20148;-67
2022/01/15 00:38:34;;;;;;;13.97;3.67;;;0.90;99.90;;;;;;5181079;27;20154;-67
2022/01/15 00:41:01;;;;;;;16.17;4.60;;;0.90;99.90;;;;;;5181154;27;20502;-67
2022/01/15 00:43:29;;;;;;;12.83;4.07;;;0.90;99.90;;;;;;5181917;27;20153;-67
2022/01/15 00:45:57;;;;;;;13.93;4.40;;;0.90;99.90;;;;;;5201016;27;20115;-67
2022/01/15 00:48:26;;;;;;;12.10;4.27;;;0.90;99.90;;;;;;5180992;27;20560;-67
2022/01/15 00:50:54;;;;;;;12.73;3.83;;;0.80;99.90;;;;;;5181016;27;20524;-67
2022/01/15 00:53:21;;;;;;;10.67;4.10;;;0.80;99.90;;;;;;5199118;27;20182;-67
2022/01/15 00:55:48;;;;;;;12.53;3.73;;;0.80;99.90;;;;;;5181197;27;20139;-67
2022/01/15 00:58:16;;;;;;;10.60;3.60;;;0.80;99.90;;;;;;5181109;27;20524;-67
2022/01/15 01:00:45;;;;;;;14.00;4.20;;;0.80;99.90;;;;;;5200527;27;20119;-67
2022/01/15 01:03:12;;;;;;;9.80;3.90;;;0.70;99.90;;;;;;5181829;27;20199;-67
2022/01/15 01:05:39;;;;;;;13.53;3.47;;;0.70;99.90;;;;;;5181035;27;20147;-67
2022/01/15 01:08:07;;;;;;;12.30;4.00;;;0.70;99.90;;;;;;5181221;27;20143;-67
2022/01/15 01:10:51;;;;;;;13.20;3.60;;;0.70;99.90;;;;;;5183080;27;20146;-67
2022/01/15 01:24:14;;;;;;;12.00;4.03;;;0.60;99.90;;;;;;5180918;27;20154;-67
2022/01/15 01:26:56;;;;;;;15.83;4.23;;;0.60;99.90;;;;;;5181316;27;20223;-67
2022/01/15 01:32:10;;;;;;;12.57;4.33;;;0.50;99.90;;;;;;5180283;27;20184;-67
2022/01/15 01:34:41;;;;;;;17.17;4.07;;;0.50;99.90;;;;;;5180229;27;20377;-66
2022/01/15 01:37:20;;;;;;;12.20;3.73;;;0.40;99.90;;;;;;5180958;27;20143;-66
2022/01/15 01:39:52;;;;;;;12.43;3.60;;;0.50;99.90;;;;;;5180186;27;20157;-66
2022/01/15 01:45:05;;;;;;;13.70;4.10;;;0.40;99.90;;;;;;5180632;27;20143;-66
2022/01/15 01:47:40;;;;;;;13.10;4.03;;;0.50;99.90;;;;;;5181027;27;20266;-67
2022/01/15 01:50:18;;;;;;;13.07;3.87;;;0.40;99.90;;;;;;5198533;27;20196;-67
2022/01/15 01:52:49;;;;;;;15.47;4.07;;;0.40;99.90;;;;;;5180262;27;20214;-67
2022/01/15 01:55:19;;;;;;;13.77;3.90;;;0.40;99.90;;;;;;5180940;27;20197;-67
2022/01/15 01:57:54;;;;;;;19.03;6.07;;;0.40;99.90;;;;;;5198021;27;20186;-67
2022/01/15 02:00:24;;;;;;;12.73;4.17;;;0.40;99.90;;;;;;5181113;27;20393;-67
2022/01/15 02:02:57;;;;;;;12.83;4.10;;;0.40;99.90;;;;;;5180629;27;20143;-67
2022/01/15 02:05:26;;;;;;;14.37;4.47;;;0.40;99.90;;;;;;5180439;27;20166;-67
2022/01/15 02:07:53;;;;;;;13.47;4.03;;;0.40;99.90;;;;;;5180940;27;20198;-67
2022/01/15 02:10:24;;;;;;;15.23;4.00;;;0.30;99.90;;;;;;5180758;27;20147;-67
2022/01/15 02:12:55;;;;;;;17.63;4.47;;;0.30;99.90;;;;;;5197742;27;20150;-67
2022/01/15 02:15:27;;;;;;;16.13;4.37;;;0.30;99.90;;;;;;5180408;27;20147;-66
2022/01/15 02:18:04;;;;;;;12.63;4.13;;;0.30;99.90;;;;;;5180499;27;20206;-67
2022/01/15 02:25:57;;;;;;;12.50;3.97;;;0.30;99.90;;;;;;5180657;27;20182;-67
2022/01/15 02:28:34;;;;;;;11.90;4.00;;;0.30;99.90;;;;;;5199460;27;20177;-67
2022/01/15 02:31:05;;;;;;;23.50;4.73;;;0.30;99.90;;;;;;5180567;27;20160;-66
2022/01/15 02:33:34;;;;;;;11.47;4.10;;;0.30;99.90;;;;;;5180559;27;20175;-67
2022/01/15 02:36:03;;;;;;;12.77;4.53;;;0.30;99.90;;;;;;5200061;27;20143;-67
2022/01/15 02:38:30;;;;;;;12.77;3.90;;;0.20;99.90;;;;;;5200145;27;20462;-66
2022/01/15 02:40:58;;;;;;;10.97;3.87;;;0.20;99.90;;;;;;5179495;27;20158;-67
2022/01/15 02:43:32;;;;;;;18.13;3.80;;;0.20;99.90;;;;;;5180861;27;20142;-67
2022/01/15 02:48:51;;;;;;;14.60;3.83;;;0.20;99.90;;;;;;5117350;28;20183;-67
2022/01/15 02:51:21;;;;;;;13.40;3.83;;;0.20;99.90;;;;;;5117640;28;20160;-67
2022/01/15 02:53:55;;;;;;;15.00;4.23;;;0.20;99.90;;;;;;5117121;28;20149;-67
2022/01/15 02:56:36;;;;;;;12.87;3.67;;;0.20;99.90;;;;;;5117232;28;20191;-66
2022/01/15 02:59:06;;;;;;;13.77;4.30;;;0.20;99.90;;;;;;5134353;28;20148;-67
2022/01/15 03:01:34;;;;;;;12.43;3.77;;;0.20;99.90;;;;;;5116950;28;20141;-67
2022/01/15 03:04:02;;;;;;;16.50;3.80;;;0.20;99.90;;;;;;5116761;28;20141;-67
2022/01/15 03:06:29;;;;;;;15.03;4.07;;;0.20;99.90;;;;;;5117124;28;20531;-67
2022/01/15 03:08:56;;;;;;;14.30;4.03;;;0.20;99.90;;;;;;5117395;28;20136;-67
2022/01/15 03:11:24;;;;;;;15.70;3.80;;;0.20;99.90;;;;;;5135285;28;20156;-67
2022/01/15 03:13:51;;;;;;;14.33;4.10;;;0.10;99.90;;;;;;5120643;28;20152;-67
2022/01/15 03:16:20;;;;;;;9.53;3.83;;;0.20;99.90;;;;;;5135201;28;20120;-67
2022/01/15 03:18:48;;;;;;;13.70;3.80;;;0.10;99.90;;;;;;5118196;28;20176;-66
2022/01/15 03:21:16;;;;;;;12.13;3.87;;;0.10;99.90;;;;;;5119061;28;20448;-67
2022/01/15 03:23:43;;;;;;;12.00;4.10;;;0.10;99.90;;;;;;5136283;28;20159;-67
2022/01/15 03:26:14;;;;;;;13.80;4.20;;;0.00;99.90;;;;;;5155114;27;20474;-66
2022/01/15 03:28:43;;;;;;;17.33;4.17;;;0.00;99.90;;;;;;5201125;27;20155;-67
2022/01/15 03:31:11;;;;;;;14.93;4.50;;;0.00;99.90;;;;;;5181667;27;20222;-66
2022/01/15 03:33:38;;;;;;;12.53;3.90;;;0.00;99.90;;;;;;5181436;27;20524;-67
2022/01/15 03:36:07;;;;;;;12.97;3.63;;;0.00;99.90;;;;;;5181529;27;20508;-67
2022/01/15 03:38:35;;;;;;;18.57;4.40;;;0.00;99.90;;;;;;5181792;27;20185;-67
2022/01/15 03:41:04;;;;;;;18.07;4.73;;;0.00;99.90;;;;;;5181884;27;20563;-67
2022/01/15 03:43:31;;;;;;;13.83;4.23;;;0.00;99.90;;;;;;5200605;27;20123;-67
2022/01/15 03:45:58;;;;;;;12.67;4.17;;;0.00;99.90;;;;;;5183048;27;20151;-67
2022/01/15 03:48:27;;;;;;;15.70;4.37;;;0.00;99.90;;;;;;5200482;27;20557;-67
2022/01/15 03:50:55;;;;;;;17.40;4.67;;;0.00;99.90;;;;;;5181571;27;20458;-67
2022/01/15 03:53:23;;;;;;;13.27;3.93;;;-0.10;99.90;;;;;;5182837;27;20448;-67
2022/01/15 03:55:50;;;;;;;17.27;5.23;;;0.00;99.90;;;;;;5182211;27;20430;-67
2022/01/15 03:58:19;;;;;;;16.90;4.20;;;0.00;99.90;;;;;;5181391;27;20501;-67
2022/01/15 04:00:48;;;;;;;13.47;4.40;;;0.00;99.90;;;;;;5181123;27;20135;-66
2022/01/15 04:03:15;;;;;;;16.37;4.20;;;-0.10;99.90;;;;;;5181018;27;20541;-67
2022/01/15 04:05:43;;;;;;;16.30;4.80;;;-0.10;99.90;;;;;;5201243;27;20437;-66
2022/01/15 04:08:10;;;;;;;17.10;4.53;;;-0.10;99.90;;;;;;5200425;27;20394;-67
2022/01/15 04:10:38;;;;;;;16.17;4.53;;;-0.10;99.90;;;;;;5181932;27;20148;-67
2022/01/15 04:13:06;;;;;;;15.03;3.97;;;-0.10;99.90;;;;;;5200609;27;20408;-67
2022/01/15 04:15:33;;;;;;;13.87;4.03;;;-0.10;99.90;;;;;;5182968;27;20604;-67
2022/01/15 04:18:01;;;;;;;17.57;4.67;;;-0.10;99.90;;;;;;5181252;27;20524;-66
2022/01/15 04:20:31;;;;;;;15.50;4.13;;;-0.20;99.90;;;;;;5182868;27;20520;-66
2022/01/15 04:22:59;;;;;;;15.37;3.47;;;-0.20;99.90;;;;;;5201025;27;20411;-67
2022/01/15 04:25:26;;;;;;;16.10;4.40;;;-0.20;99.90;;;;;;5184051;27;20146;-66
2022/01/15 04:27:57;;;;;;;15.93;4.40;;;-0.20;99.90;;;;;;5199846;27;20443;-66
2022/01/15 04:30:27;;;;;;;17.00;3.80;;;-0.20;99.90;;;;;;5181025;27;20565;-66
2022/01/15 04:32:55;;;;;;;16.77;4.03;;;-0.10;99.90;;;;;;5181366;27;20524;-66
2022/01/15 04:35:22;;;;;;;16.10;3.87;;;-0.20;99.90;;;;;;5181835;27;20173;-67
2022/01/15 04:37:59;;;;;;;15.83;3.90;;;-0.10;99.90;;;;;;5181709;27;20151;-66
2022/01/15 04:40:27;;;;;;;13.80;4.07;;;-0.20;99.90;;;;;;5181109;27;20356;-66
2022/01/15 04:42:54;;;;;;;14.43;3.80;;;-0.20;99.90;;;;;;5201538;27;20146;-66
2022/01/15 04:45:21;;;;;;;16.00;4.07;;;-0.20;99.90;;;;;;5181934;27;20190;-66
2022/01/15 04:47:49;;;;;;;16.13;4.43;;;-0.20;99.90;;;;;;5182701;27;20389;-67
2022/01/15 04:50:20;;;;;;;18.63;3.90;;;-0.20;99.90;;;;;;5199943;27;20104;-67
2022/01/15 04:52:50;;;;;;;11.03;3.83;;;-0.20;99.90;;;;;;5201323;27;20148;-66
2022/01/15 04:55:20;;;;;;;10.87;3.60;;;-0.20;99.90;;;;;;5200519;27;20192;-67
2022/01/15 04:57:48;;;;;;;12.83;4.27;;;-0.20;99.90;;;;;;5199896;27;20358;-67
2022/01/15 05:00:17;;;;;;;12.77;3.90;;;-0.20;99.90;;;;;;5181491;27;20513;-67
2022/01/15 05:02:45;;;;;;;11.50;3.97;;;-0.20;99.90;;;;;;5201102;27;20167;-66
2022/01/15 05:05:17;;;;;;;16.07;4.40;;;-0.20;99.90;;;;;;5181689;27;20138;-66
2022/01/15 05:07:45;;;;;;;15.63;4.10;;;-0.10;99.90;;;;;;5200113;27;20410;-67
2022/01/15 05:10:17;;;;;;;11.30;4.03;;;-0.20;99.90;;;;;;5181004;27;20154;-66
2022/01/15 05:12:47;;;;;;;12.87;4.43;;;-0.20;99.90;;;;;;5200191;27;20388;-66
2022/01/15 05:15:16;;;;;;;15.47;3.70;;;-0.20;99.90;;;;;;5181716;27;20150;-66
2022/01/15 05:17:52;;;;;;;11.70;3.53;;;-0.10;99.90;;;;;;5180867;27;20173;-66
2022/01/15 05:20:22;;;;;;;11.90;4.13;;;-0.20;99.90;;;;;;5181316;27;20169;-66
2022/01/15 05:22:50;;;;;;;13.00;4.70;;;-0.10;99.90;;;;;;5180759;27;20145;-67
2022/01/15 05:25:18;;;;;;;10.57;4.43;;;-0.20;99.90;;;;;;5181632;27;20365;-67
2022/01/15 05:27:46;;;;;;;15.23;4.43;;;-0.20;99.90;;;;;;5199626;27;20176;-67
2022/01/15 05:30:14;;;;;;;14.33;4.20;;;-0.20;99.90;;;;;;5181334;27;20178;-66
2022/01/15 05:32:42;;;;;;;13.77;3.87;;;-0.20;99.90;;;;;;5181014;27;20186;-67
2022/01/15 05:35:10;;;;;;;10.17;4.00;;;-0.20;99.90;;;;;;5181121;27;20160;-67
2022/01/15 05:37:38;;;;;;;12.93;4.20;;;-0.20;99.90;;;;;;5181443;27;20160;-67
2022/01/15 05:40:12;;;;;;;13.63;4.27;;;-0.20;99.90;;;;;;5180723;27;20185;-66
2022/01/15 05:42:52;;;;;;;12.87;3.57;;;-0.20;99.90;;;;;;5180699;27;20266;-67
2022/01/15 05:45:21;;;;;;;16.60;4.20;;;-0.20;99.90;;;;;;5181199;27;20146;-66
2022/01/15 05:48:18;;;;;;;11.87;3.77;;;-0.30;99.90;;;;;;5180825;27;20198;-67
2022/01/15 05:50:51;;;;;;;15.03;4.30;;;-0.20;99.90;;;;;;5182023;27;20165;-66
2022/01/15 05:53:22;;;;;;;13.87;3.93;;;-0.20;99.90;;;;;;5200280;27;20266;-66
2022/01/15 05:55:49;;;;;;;18.87;4.53;;;-0.20;99.90;;;;;;5181261;27;20139;-66
2022/01/15 05:58:20;;;;;;;14.87;4.30;;;-0.20;99.90;;;;;;5200239;27;20144;-66
2022/01/15 06:00:53;;;;;;;15.60;3.80;;;-0.20;99.90;;;;;;5181386;27;20198;-67
2022/01/15 06:03:22;;;;;;;10.40;3.40;;;-0.30;99.90;;;;;;5179398;27;20147;-66
2022/01/15 06:05:49;;;;;;;13.57;3.97;;;-0.20;99.90;;;;;;5200284;27;20225;-67
2022/01/15 06:08:17;;;;;;;13.67;3.90;;;-0.30;99.90;;;;;;5200224;27;20138;-66
2022/01/15 06:10:49;;;;;;;11.87;3.93;;;-0.30;99.90;;;;;;5180870;27;20144;-67
2022/01/15 06:13:26;;;;;;;13.20;4.00;;;-0.30;99.90;;;;;;5180818;27;20139;-66
2022/01/15 06:15:54;;;;;;;18.30;4.00;;;-0.30;99.90;;;;;;5200240;27;20134;-66
2022/01/15 06:18:24;;;;;;;15.20;3.73;;;-0.30;99.90;;;;;;5181264;27;20194;-67
2022/01/15 06:20:51;;;;;;;14.70;4.37;;;-0.30;99.90;;;;;;5181057;27;20194;-66
2022/01/15 06:23:19;;;;;;;12.07;4.30;;;-0.30;99.90;;;;;;5181267;27;20414;-67
2022/01/15 06:25:47;;;;;;;15.77;4.00;;;-0.30;99.90;;;;;;5180819;27;20142;-67
2022/01/15 06:28:14;;;;;;;15.10;3.93;;;-0.30;99.90;;;;;;5200073;27;20167;-66
2022/01/15 06:30:41;;;;;;;15.80;4.13;;;-0.30;99.90;;;;;;5181032;27;20165;-66
2022/01/15 06:33:09;;;;;;;15.93;4.00;;;-0.30;99.90;;;;;;5181517;27;20151;-66
2022/01/15 06:35:36;;;;;;;15.33;3.80;;;-0.30;99.90;;;;;;5181341;27;20147;-67
2022/01/15 06:38:03;;;;;;;15.00;4.23;;;-0.40;99.90;;;;;;5181761;27;20151;-67
2022/01/15 06:40:34;;;;;;;11.80;3.40;;;-0.40;99.90;;;;;;5180649;27;20174;-66
2022/01/15 06:43:03;;;;;;;15.03;3.87;;;-0.30;99.90;;;;;;5180476;27;20207;-66
2022/01/15 06:45:30;;;;;;;14.80;3.90;;;-0.40;99.90;;;;;;5181354;27;20272;-66
2022/01/15 06:47:58;;;;;;;13.40;3.67;;;-0.40;99.90;;;;;;5182270;27;20156;-67
2022/01/15 06:50:27;;;;;;;18.33;4.30;;;-0.40;99.90;;;;;;5181925;27;20179;-67
2022/01/15 06:52:56;;;;;;;17.80;3.87;;;-0.40;99.90;;;;;;5201357;27;20154;-66
2022/01/15 06:55:23;;;;;;;12.43;3.90;;;-0.40;99.90;;;;;;5182153;27;20367;-67
2022/01/15 06:57:50;;;;;;;16.57;3.60;;;-0.40;99.90;;;;;;5181299;27;20147;-67
2022/01/15 07:00:17;;;;;;;11.00;3.90;;;-0.40;99.90;;;;;;5182659;27;20116;-66
2022/01/15 07:02:45;;;;;;;13.43;3.73;;;-0.40;99.90;;;;;;5200922;27;20151;-67
2022/01/15 07:05:13;;;;;;;15.90;4.50;;;-0.40;99.90;;;;;;5182371;27;20150;-67
2022/01/15 07:07:44;;;;;;;11.03;3.73;;;-0.40;99.90;;;;;;5182315;27;20439;-67
2022/01/15 07:10:13;;;;;;;14.23;4.20;;;-0.40;99.90;;;;;;5181849;27;20195;-67
2022/01/15 07:12:41;;;;;;;16.07;3.87;;;-0.40;99.90;;;;;;5201203;27;20111;-67
2022/01/15 07:15:09;;;;;;;16.03;3.97;;;-0.30;99.90;;;;;;5202680;27;20118;-66
2022/01/15 07:17:44;;;;;;;13.20;4.03;;;-0.40;99.90;;;;;;5202551;27;20143;-67
2022/01/15 07:20:13;;;;;;;15.37;4.30;;;-0.40;99.90;;;;;;5182270;27;20150;-67
2022/01/15 07:22:40;;;;;;;16.17;4.17;;;-0.30;99.90;;;;;;5201863;27;20123;-67
2022/01/15 07:25:09;;;;;;;11.17;3.70;;;-0.30;99.90;;;;;;5200598;27;20191;-67
2022/01/15 07:27:37;;;;;;;12.13;3.90;;;-0.30;99.90;;;;;;5201017;27;20154;-67
2022/01/15 07:30:06;;;;;;;11.33;3.97;;;-0.30;99.90;;;;;;5182466;27;20161;-67
2022/01/15 07:32:34;;;;;;;14.40;4.27;;;-0.30;99.90;;;;;;5182502;27;20150;-67
2022/01/15 07:35:02;;;;;;;12.37;4.40;;;-0.30;99.90;;;;;;5183644;27;20165;-67
2022/01/15 07:37:30;;;;;;;13.73;4.50;;;-0.30;99.90;;;;;;5182646;27;20158;-67
2022/01/15 07:39:59;;;;;;;15.27;4.20;;;-0.20;99.90;;;;;;5182822;27;20144;-67
2022/01/15 07:42:33;;;;;;;12.70;4.17;;;-0.20;99.90;;;;;;5201160;27;20160;-67
2022/01/15 07:45:02;;;;;;;14.90;4.73;;;-0.20;99.90;;;;;;5182532;27;20139;-67
2022/01/15 07:47:30;;;;;;;13.83;4.50;;;-0.10;99.90;;;;;;5182964;27;20166;-67
2022/01/15 07:49:58;;;;;;;13.13;4.33;;;0.10;99.90;;;;;;5201059;27;20394;-67
2022/01/15 07:52:25;;;;;;;13.67;4.80;;;0.30;99.90;;;;;;5181437;27;20171;-67
2022/01/15 07:54:52;;;;;;;10.43;4.03;;;0.50;99.90;;;;;;5183576;27;20135;-67
2022/01/15 07:57:22;;;;;;;15.87;4.67;;;0.60;99.90;;;;;;5182814;27;20148;-67
2022/01/15 07:59:50;;;;;;;14.17;4.80;;;0.70;99.90;;;;;;5181773;27;20162;-67
2022/01/15 08:02:18;;;;;;;15.67;4.03;;;0.70;99.90;;;;;;5181084;27;20167;-67
2022/01/15 08:04:45;;;;;;;17.90;4.70;;;0.90;99.90;;;;;;5201147;27;20139;-67
2022/01/15 08:07:12;;;;;;;13.07;4.27;;;1.00;99.90;;;;;;5181933;27;20139;-67
2022/01/15 08:09:39;;;;;;;16.60;4.77;;;1.10;99.90;;;;;;5181385;27;20186;-67
2022/01/15 08:12:11;;;;;;;14.33;4.70;;;1.20;99.90;;;;;;5181479;27;20140;-67
2022/01/15 08:14:38;;;;;;;12.43;4.30;;;1.40;99.90;;;;;;5182460;27;20165;-67
2022/01/15 08:17:09;;;;;;;14.40;4.50;;;1.50;99.90;;;;;;5183542;27;20199;-67
2022/01/15 08:19:37;;;;;;;13.87;4.30;;;1.50;99.90;;;;;;5183718;27;20187;-67
2022/01/15 08:22:04;;;;;;;16.00;4.33;;;1.40;99.90;;;;;;5183770;27;20139;-67
2022/01/15 08:24:31;;;;;;;15.40;4.30;;;1.40;99.90;;;;;;5201003;27;20472;-67
2022/01/15 08:26:59;;;;;;;15.90;4.50;;;1.30;99.90;;;;;;5181315;27;20143;-67
2022/01/15 08:29:26;;;;;;;14.73;4.37;;;1.40;99.90;;;;;;5202227;27;20171;-67
2022/01/15 08:31:56;;;;;;;13.67;4.23;;;1.30;99.90;;;;;;5181807;27;20135;-67
2022/01/15 08:34:24;;;;;;;13.80;4.10;;;1.40;99.90;;;;;;5181370;27;20139;-67
2022/01/15 08:36:59;;;;;;;15.43;4.20;;;1.50;99.90;;;;;;5182326;27;20256;-67
2022/01/15 08:39:26;;;;;;;14.33;4.30;;;1.60;99.90;;;;;;5180399;27;20175;-67
2022/01/15 08:41:56;;;;;;;16.77;4.27;;;1.50;99.90;;;;;;5180984;27;20143;-67
2022/01/15 08:44:25;;;;;;;13.57;4.20;;;1.60;99.90;;;;;;5179998;27;20194;-67
2022/01/15 08:46:52;;;;;;;16.30;4.47;;;2.00;99.90;;;;;;5181152;27;20319;-68
2022/01/15 08:49:20;;;;;;;15.40;4.67;;;2.30;99.90;;;;;;5181969;27;20192;-67
2022/01/15 08:51:47;;;;;;;12.97;4.40;;;2.40;99.90;;;;;;5181017;27;20139;-67
2022/01/15 08:54:14;;;;;;;11.37;3.80;;;2.10;99.90;;;;;;5181615;27;20407;-67
2022/01/15 08:56:41;;;;;;;13.87;4.10;;;1.80;99.90;;;;;;5180226;27;20154;-67
2022/01/15 08:59:08;;;;;;;16.63;4.30;;;1.60;99.90;;;;;;5180514;27;20167;-67
2022/01/15 09:01:35;;;;;;;13.43;3.97;;;1.60;99.90;;;;;;5200296;27;20112;-67
2022/01/15 09:04:02;;;;;;;16.67;4.30;;;1.60;99.90;;;;;;5180359;27;20158;-68
2022/01/15 09:06:29;;;;;;;18.10;4.93;;;1.50;99.90;;;;;;5182024;27;20154;-67
2022/01/15 09:09:00;;;;;;;14.93;4.00;;;1.50;99.90;;;;;;5180062;27;20175;-67
2022/01/15 09:11:28;;;;;;;13.77;4.10;;;1.40;99.90;;;;;;5181032;27;20193;-68
2022/01/15 09:13:55;;;;;;;18.57;4.97;;;1.50;99.90;;;;;;5180027;27;20516;-65
2022/01/15 09:16:22;;;;;;;14.30;4.20;;;1.40;99.90;;;;;;5181278;27;20135;-65
2022/01/15 09:18:49;;;;;;;11.90;3.97;;;1.40;99.90;;;;;;5200434;27;20163;-65
2022/01/15 09:21:17;;;;;;;14.93;4.07;;;1.50;99.90;;;;;;5180748;27;20222;-65
2022/01/15 09:23:45;;;;;;;16.43;4.60;;;1.50;99.90;;;;;;5180431;27;20162;-65
2022/01/15 09:26:20;;;;;;;14.13;4.13;;;1.50;99.90;;;;;;5181149;27;20146;-65
2022/01/15 09:31:36;;;;;;;12.80;4.20;;;1.40;99.90;;;;;;5156413;27;20148;-65
2022/01/15 09:34:03;;;;;;;12.33;4.00;;;1.40;99.90;;;;;;5155012;27;20390;-65
2022/01/15 09:36:30;;;;;;;17.07;4.60;;;1.40;99.90;;;;;;5138505;27;20156;-65
2022/01/15 09:38:57;;;;;;;13.33;3.83;;;1.40;99.90;;;;;;5137733;27;20216;-65
2022/01/15 09:41:25;;;;;;;16.00;4.23;;;1.60;99.90;;;;;;5138165;27;20203;-65
2022/01/15 09:43:52;;;;;;;14.70;4.60;;;1.50;99.90;;;;;;5139832;27;20147;-65
2022/01/15 09:46:21;;;;;;;13.60;4.13;;;1.50;99.90;;;;;;5155447;27;20128;-65
2022/01/15 09:48:48;;;;;;;14.23;4.50;;;1.60;99.90;;;;;;5133866;27;20163;-64
2022/01/15 09:51:16;;;;;;;11.50;3.90;;;1.70;99.90;;;;;;5134902;28;20141;-66
2022/01/15 09:53:43;;;;;;;17.47;4.47;;;1.80;99.90;;;;;;5135448;28;20151;-65
2022/01/15 09:56:10;;;;;;;13.67;4.20;;;1.70;99.90;;;;;;5134636;28;20129;-65
2022/01/15 09:58:37;;;;;;;17.97;4.63;;;1.70;99.90;;;;;;5133894;28;20191;-65
2022/01/15 10:01:05;;;;;;;12.10;3.90;;;1.70;99.90;;;;;;5135065;28;20183;-65
2022/01/15 10:03:32;;;;;;;17.07;4.30;;;1.70;99.90;;;;;;5133871;28;20170;-65
2022/01/15 10:06:03;;;;;;;12.97;4.40;;;1.70;99.90;;;;;;5133650;28;20149;-65
2022/01/15 10:08:31;;;;;;;15.80;4.20;;;1.70;99.90;;;;;;5151529;27;20154;-65
2022/01/15 10:10:59;;;;;;;13.43;4.40;;;1.70;99.90;;;;;;5180429;27;20135;-65
2022/01/15 10:13:30;;;;;;;14.67;4.73;;;1.80;99.90;;;;;;5177431;27;20183;-65
2022/01/15 10:15:57;;;;;;;12.60;4.50;;;2.00;99.90;;;;;;5177883;27;20170;-65
2022/01/15 10:18:31;;;;;;;14.37;4.47;;;2.20;99.90;;;;;;5160402;27;20192;-65
2022/01/15 10:21:15;;;;;;;14.33;4.53;;;2.10;99.90;;;;;;5180509;27;20461;-65
2022/01/15 10:23:53;;;;;;;12.97;4.47;;;2.10;99.90;;;;;;5160458;27;20143;-65
2022/01/15 10:26:25;;;;;;;14.07;4.40;;;2.10;99.90;;;;;;5160695;27;20147;-65
2022/01/15 10:29:07;;;;;;;12.73;4.37;;;2.10;99.90;;;;;;5159395;27;20148;-65
2022/01/15 10:31:40;;;;;;;12.97;3.90;;;2.20;99.90;;;;;;5160466;27;20139;-65
2022/01/15 10:34:27;;;;;;;12.87;4.10;;;2.20;99.90;;;;;;5159837;27;20205;-65
2022/01/15 10:37:16;;;;;;;14.90;4.77;;;2.30;99.90;;;;;;5176935;27;20167;-65
2022/01/15 10:40:04;;;;;;;11.10;4.47;;;2.30;99.90;;;;;;5159873;27;20147;-65
2022/01/15 10:42:31;;;;;;;10.17;4.00;;;2.40;99.90;;;;;;5160758;27;20198;-65
2022/01/15 10:45:06;;;;;;;17.57;4.90;;;2.40;99.90;;;;;;5159597;27;20207;-65
2022/01/15 10:47:43;;;;;;;13.93;4.40;;;2.40;99.90;;;;;;5188155;27;20179;-65
2022/01/15 10:50:20;;;;;;;14.70;4.43;;;2.40;99.90;;;;;;5180865;27;20170;-67
2022/01/15 10:52:48;;;;;;;13.47;4.50;;;2.30;99.90;;;;;;5180287;27;20179;-67
2022/01/15 10:55:16;;;;;;;13.13;3.97;;;2.40;99.90;;;;;;5200406;27;20119;-66
2022/01/15 10:57:47;;;;;;;11.50;4.13;;;2.20;99.90;;;;;;5180100;27;20210;-67
2022/01/15 11:00:30;;;;;;;15.97;4.50;;;2.20;99.90;;;;;;5181204;27;20175;-66
2022/01/15 11:03:02;;;;;;;11.47;4.10;;;2.20;99.90;;;;;;5199435;27;20166;-66
2022/01/15 11:05:33;;;;;;;13.37;4.20;;;2.20;99.90;;;;;;5179513;27;20178;-67
2022/01/15 11:08:32;;;;;;;13.30;4.43;;;2.50;99.90;;;;;;5181336;27;20167;-66
2022/01/15 11:11:05;;;;;;;16.27;4.40;;;2.50;99.90;;;;;;5178586;27;20143;-67
2022/01/15 11:13:41;;;;;;;15.00;4.80;;;2.60;99.90;;;;;;5180433;27;20343;-67
2022/01/15 11:16:15;;;;;;;13.57;4.37;;;2.70;99.90;;;;;;5181927;27;20567;-66
2022/01/15 11:18:54;;;;;;;18.27;4.30;;;2.70;99.90;;;;;;5180760;27;20143;-66
2022/01/15 11:21:22;;;;;;;10.90;4.50;;;2.70;99.90;;;;;;5164807;27;20191;-67
2022/01/15 11:23:50;;;;;;;14.17;4.23;;;2.80;99.90;;;;;;5180254;27;20144;-67
2022/01/15 11:26:24;;;;;;;15.63;4.77;;;2.80;99.90;;;;;;5180328;27;20151;-67
2022/01/15 11:28:53;;;;;;;13.40;3.90;;;2.90;99.90;;;;;;5164624;27;20155;-67
2022/01/15 11:31:24;;;;;;;11.47;3.90;;;2.80;99.90;;;;;;5199529;27;20119;-67
2022/01/15 11:33:58;;;;;;;11.27;4.37;;;2.80;99.90;;;;;;5183020;27;20152;-67
2022/01/15 11:36:33;;;;;;;12.50;4.33;;;2.60;99.90;;;;;;5201796;27;20183;-67
2022/01/15 11:39:03;;;;;;;11.37;4.37;;;2.40;99.90;;;;;;5183058;27;20169;-67
2022/01/15 11:41:30;;;;;;;10.70;4.23;;;2.50;99.90;;;;;;5181815;27;20150;-68
2022/01/15 11:44:09;;;;;;;15.97;5.00;;;2.50;99.90;;;;;;5201972;27;20120;-66
2022/01/15 11:46:42;;;;;;;14.97;5.07;;;2.50;99.90;;;;;;5200787;27;20372;-69
2022/01/15 11:49:35;;;;;;;13.10;4.50;;;2.70;99.90;;;;;;5182141;27;20140;-68
2022/01/15 11:52:12;;;;;;;13.47;4.30;;;2.90;99.90;;;;;;5181787;27;20408;-67
2022/01/15 11:54:41;;;;;;;14.33;4.47;;;3.00;99.90;;;;;;5183821;27;20135;-67
2022/01/15 11:57:32;;;;;;;10.37;3.73;;;3.20;99.90;;;;;;5181733;27;20175;-67
2022/01/15 12:00:04;;;;;;;11.03;4.00;;;3.30;99.90;;;;;;5181519;27;20194;-67
2022/01/15 12:02:41;;;;;;;12.43;4.40;;;3.20;99.90;;;;;;5200955;27;20124;-67
2022/01/15 12:05:15;;;;;;;15.57;4.20;;;3.20;99.90;;;;;;5181703;27;20178;-67
2022/01/15 12:08:02;;;;;;;13.30;3.90;;;3.40;99.90;;;;;;5181946;27;20154;-67
2022/01/15 12:10:41;;;;;;;10.10;4.00;;;3.90;99.90;;;;;;5180830;27;20187;-67
2022/01/15 12:13:12;;;;;;;11.83;3.87;;;4.40;99.90;;;;;;5200728;27;20445;-67
2022/01/15 12:15:39;;;;;;;11.10;3.70;;;4.60;99.90;;;;;;5181456;27;20179;-67
2022/01/15 12:18:43;;;;;;;9.03;3.60;;;4.70;99.90;;;;;;5182397;27;20215;-67
2022/01/15 12:21:10;;;;;;;10.10;3.73;;;4.30;99.90;;;;;;5181611;27;20418;-68
2022/01/15 12:23:37;;;;;;;7.90;3.10;;;4.30;99.90;;;;;;5200192;27;20135;-67
2022/01/15 12:26:09;;;;;;;12.30;3.57;;;4.10;99.90;;;;;;5200205;27;20121;-67
2022/01/15 12:28:36;;;;;;;10.77;3.43;;;3.90;99.90;;;;;;5181682;27;20175;-67
2022/01/15 12:31:03;;;;;;;11.90;3.80;;;3.80;99.90;;;;;;5201205;27;20131;-67
2022/01/15 12:33:30;;;;;;;11.27;3.57;;;3.60;99.90;;;;;;5180509;27;20156;-67
2022/01/15 12:36:00;;;;;;;8.83;3.30;;;3.50;99.90;;;;;;5182169;27;20425;-67
2022/01/15 12:38:29;;;;;;;9.60;3.47;;;3.40;99.90;;;;;;5181061;27;20494;-67
2022/01/15 12:41:04;;;;;;;14.23;3.53;;;3.10;99.90;;;;;;5180927;27;20487;-67
2022/01/15 12:43:40;;;;;;;14.67;3.83;;;3.00;99.90;;;;;;5181160;27;20143;-68
2022/01/15 12:46:13;;;;;;;13.27;3.87;;;2.90;99.90;;;;;;5200371;27;20339;-67
2022/01/15 12:48:44;;;;;;;9.43;3.67;;;2.80;99.90;;;;;;5179857;27;20195;-67
2022/01/15 12:51:18;;;;;;;9.63;3.80;;;2.90;99.90;;;;;;5181899;27;20136;-67
2022/01/15 12:53:50;;;;;;;13.73;3.93;;;2.90;99.90;;;;;;5201089;27;20131;-67
2022/01/15 12:56:19;;;;;;;11.23;3.70;;;2.90;99.90;;;;;;5181523;27;20135;-68
2022/01/15 12:58:47;;;;;;;13.10;4.00;;;3.00;99.90;;;;;;5182876;27;20182;-67
2022/01/15 13:01:22;;;;;;;12.33;4.00;;;3.10;99.90;;;;;;5180711;27;20159;-68
2022/01/15 13:03:49;;;;;;;13.53;3.60;;;3.10;99.90;;;;;;5181911;27;20167;-68
2022/01/15 13:06:16;;;;;;;12.20;3.90;;;3.10;99.90;;;;;;5180589;27;20152;-68
2022/01/15 13:08:44;;;;;;;9.70;3.20;;;3.10;99.90;;;;;;5199826;27;20133;-67
2022/01/15 13:13:52;;;;;;;14.73;4.67;;;2.70;99.90;;;;;;5199189;27;20143;-67
2022/01/15 13:16:21;;;;;;;10.03;3.93;;;2.70;99.90;;;;;;5201692;27;20151;-67
2022/01/15 13:18:58;;;;;;;12.03;4.23;;;2.70;99.90;;;;;;5182079;27;20170;-67
2022/01/15 13:21:28;;;;;;;12.83;3.80;;;2.60;99.90;;;;;;5200635;27;20147;-67
2022/01/15 13:23:59;;;;;;;12.17;3.97;;;2.70;99.90;;;;;;5201854;27;20477;-67
2022/01/15 13:26:35;;;;;;;15.20;4.20;;;2.80;99.90;;;;;;5200746;27;20178;-67
2022/01/15 13:29:19;;;;;;;12.30;4.23;;;2.90;99.90;;;;;;5199903;27;20139;-67
2022/01/15 13:31:48;;;;;;;12.33;4.10;;;2.90;99.90;;;;;;5181118;27;20174;-67